Time;durP1;ratioP1;P1;durP2;ratioP2;P2;SDS_P1;SDS_P2;PMS_P1;PMS_P2;Temp;Humidity;BMP_temperature;BMP_pressure;BME280_temperature;BME280_humidity;BME280_pressure;Samples;Min_cycle;Max_cycle;Signal;HPM_P1;HPM_P2
2021/04/26 00:01:05;;;;;;;9.50;8.57;;;6.60;66.00;;;;;;4983677;28;20202;-90
2021/04/26 00:03:31;;;;;;;12.90;9.38;;;5.10;64.20;;;;;;4982727;28;20232;-90
2021/04/26 00:05:57;;;;;;;11.63;10.17;;;6.80;65.20;;;;;;5000199;28;20197;-89
2021/04/26 00:08:23;;;;;;;11.87;8.80;;;6.50;67.30;;;;;;5000349;28;20369;-89
2021/04/26 00:10:49;;;;;;;16.17;9.60;;;;;;;;;;4983380;28;20162;-89
2021/04/26 00:13:15;;;;;;;9.75;8.85;;;4.80;59.30;;;;;;5000138;28;20247;-89
2021/04/26 00:15:40;;;;;;;13.33;9.90;;;5.80;67.70;;;;;;4983594;28;20186;-89
2021/04/26 00:18:09;;;;;;;12.90;11.20;;;4.50;65.50;;;;;;4999015;28;20308;-88
2021/04/26 00:20:48;;;;;;;13.52;9.52;;;4.30;63.10;;;;;;5000252;28;20732;-89
2021/04/26 00:23:29;;;;;;;9.95;9.05;;;5.60;63.10;;;;;;4998392;28;20249;-89
2021/04/26 00:26:31;;;;;;;9.98;8.98;;;4.60;62.80;;;;;;4986679;28;20203;-89
2021/04/26 00:29:13;;;;;;;11.30;10.07;;;4.60;63.20;;;;;;4999013;28;20178;-89
2021/04/26 00:31:42;;;;;;;9.00;8.18;;;5.60;61.70;;;;;;4997433;28;20257;-90
2021/04/26 00:34:23;;;;;;;10.02;8.98;;;4.30;64.60;;;;;;4993635;28;20171;-90
2021/04/26 00:36:53;;;;;;;14.27;8.10;;;5.00;61.70;;;;;;4991165;28;20186;-89
2021/04/26 00:40:02;;;;;;;15.13;7.00;;;7.00;65.70;;;;;;4994689;28;20281;-90
2021/04/26 00:42:41;;;;;;;8.35;7.30;;;5.20;61.60;;;;;;4992482;28;20182;-90
2021/04/26 00:45:14;;;;;;;7.30;6.70;;;4.60;61.70;;;;;;4981669;28;20165;-90
2021/04/26 00:48:37;;;;;;;10.95;7.18;;;4.00;62.70;;;;;;4999070;28;20177;-89
2021/04/26 00:51:29;;;;;;;12.15;9.70;;;4.00;60.50;;;;;;4999046;28;20209;-89
2021/04/26 00:54:03;;;;;;;8.82;7.93;;;5.60;65.80;;;;;;4984534;28;20180;-90
2021/04/26 00:56:54;;;;;;;11.35;9.57;;;4.40;63.10;;;;;;4999411;28;20201;-90
2021/04/26 00:59:52;;;;;;;8.43;6.70;;;6.70;66.60;;;;;;4970778;28;20244;-89
2021/04/26 01:02:30;;;;;;;9.10;7.53;;;4.50;60.60;;;;;;4999806;28;20184;-90
2021/04/26 01:05:32;;;;;;;9.70;7.70;;;4.50;63.10;;;;;;4984650;28;20210;-90
2021/04/26 01:08:19;;;;;;;6.70;6.20;;;5.40;61.50;;;;;;4982506;28;20174;-89
2021/04/26 01:10:51;;;;;;;6.88;6.38;;;5.40;63.60;;;;;;4981491;28;20192;-89
2021/04/26 01:14:15;;;;;;;13.25;7.25;;;6.30;63.30;;;;;;4996383;28;20174;-89
2021/04/26 01:17:10;;;;;;;7.00;6.40;;;5.30;59.90;;;;;;4982353;28;20165;-89
2021/04/26 01:20:13;;;;;;;9.93;7.05;;;6.90;61.30;;;;;;4966993;28;20206;-89
2021/04/26 01:23:22;;;;;;;7.75;5.95;;;5.00;59.40;;;;;;4981434;28;20177;-89
2021/04/26 01:26:39;;;;;;;7.57;6.95;;;4.50;59.00;;;;;;4998382;28;20169;-91
2021/04/26 01:30:07;;;;;;;7.43;6.78;;;5.60;59.20;;;;;;4998387;28;20206;-90
2021/04/26 01:36:05;;;;;;;9.45;6.75;;;5.90;60.20;;;;;;4999280;28;20182;-90
2021/04/26 01:39:22;;;;;;;7.72;6.65;;;4.50;59.70;;;;;;4965030;28;20216;-90
2021/04/26 01:42:06;;;;;;;6.43;5.88;;;5.30;58.20;;;;;;4979751;28;20220;-90
2021/04/26 01:44:56;;;;;;;9.93;6.75;;;4.70;57.00;;;;;;4999997;28;20181;-90
2021/04/26 01:47:31;;;;;;;10.63;7.20;;;4.70;57.80;;;;;;4964796;28;20174;-91
2021/04/26 01:52:34;;;;;;;11.77;7.70;;;4.30;65.80;;;;;;5730649;22;20224;-90
2021/04/26 01:55:02;;;;;;;19.13;7.68;;;5.50;62.30;;;;;;5018101;28;20186;-90
2021/04/26 01:57:30;;;;;;;9.85;7.55;;;5.80;63.30;;;;;;5017778;28;20203;-90
2021/04/26 01:59:57;;;;;;;9.27;7.55;;;4.30;62.30;;;;;;5001451;28;20188;-90
2021/04/26 02:02:23;;;;;;;13.15;8.05;;;6.50;64.50;;;;;;5000406;28;20185;-89
2021/04/26 02:04:51;;;;;;;8.80;7.80;;;5.90;63.70;;;;;;4999869;28;20172;-89
2021/04/26 02:07:17;;;;;;;17.15;7.50;;;5.10;64.20;;;;;;4999998;28;20241;-90
2021/04/26 02:09:43;;;;;;;13.20;8.00;;;;;;;;;;5017471;28;20170;-89
2021/04/26 02:12:12;;;;;;;7.65;6.95;;;4.10;62.10;;;;;;5000312;28;20378;-90
2021/04/26 02:14:40;;;;;;;9.93;7.45;;;6.90;66.40;;;;;;4999646;28;20197;-89
2021/04/26 02:17:09;;;;;;;9.98;8.57;;;4.50;63.80;;;;;;5001191;28;20256;-89
2021/04/26 02:19:35;;;;;;;8.63;7.95;;;6.20;64.90;;;;;;5017017;28;20185;-90
2021/04/26 02:22:02;;;;;;;10.00;9.10;;;3.90;65.80;;;;;;5016607;28;20169;-89
2021/04/26 02:24:28;;;;;;;10.27;8.25;;;5.60;65.80;;;;;;4999899;28;20168;-89
2021/04/26 02:26:54;;;;;;;8.23;7.43;;;;;;;;;;5000160;28;20174;-89
2021/04/26 02:29:20;;;;;;;9.38;8.10;;;4.20;59.50;;;;;;5000083;28;20228;-89
2021/04/26 02:31:54;;;;;;;10.90;8.50;;;4.20;59.60;;;;;;4999707;28;20169;-88
2021/04/26 02:34:27;;;;;;;10.05;7.30;;;5.20;61.50;;;;;;5015971;28;20439;-89
2021/04/26 02:36:59;;;;;;;9.13;8.38;;;3.90;61.90;;;;;;4999630;28;20177;-89
2021/04/26 02:39:31;;;;;;;12.40;11.25;;;5.70;65.10;;;;;;4999428;28;20189;-88
2021/04/26 02:41:58;;;;;;;10.80;8.93;;;3.90;63.70;;;;;;5016473;28;20265;-89
2021/04/26 02:44:30;;;;;;;9.82;8.82;;;6.10;66.40;;;;;;4999828;28;20188;-89
2021/04/26 02:47:06;;;;;;;9.88;8.98;;;5.90;66.50;;;;;;5001117;28;20244;-89
2021/04/26 02:49:33;;;;;;;9.30;8.35;;;6.50;67.10;;;;;;5017674;28;20492;-89
2021/04/26 02:52:44;;;;;;;9.05;8.15;;;4.30;64.10;;;;;;5017546;28;20232;-90
2021/04/26 02:55:16;;;;;;;10.13;9.07;;;4.90;63.10;;;;;;5000276;28;20193;-89
2021/04/26 02:57:54;;;;;;;17.20;9.93;;;3.80;63.50;;;;;;4999612;28;20203;-88
2021/04/26 03:00:48;;;;;;;11.40;9.90;;;2.30;62.20;;;;;;4992836;28;20193;-89
2021/04/26 03:03:34;;;;;;;10.35;9.18;;;3.50;62.30;;;;;;5009690;28;20209;-88
2021/04/26 03:06:11;;;;;;;12.02;9.63;;;3.80;62.90;;;;;;4999608;28;20165;-90
2021/04/26 03:09:00;;;;;;;15.07;9.90;;;3.80;62.60;;;;;;5016432;28;20184;-89
2021/04/26 03:11:40;;;;;;;11.82;10.45;;;3.90;63.60;;;;;;5003444;28;20178;-89
2021/04/26 03:14:09;;;;;;;10.10;9.10;;;3.50;64.40;;;;;;5013604;28;20173;-87
2021/04/26 03:16:40;;;;;;;9.52;8.68;;;3.70;67.20;;;;;;5000041;28;20177;-89
2021/04/26 03:19:10;;;;;;;10.98;9.82;;;3.90;67.50;;;;;;4985584;28;20308;-90
2021/04/26 03:21:43;;;;;;;11.48;10.20;;;3.10;65.20;;;;;;5003223;28;20160;-89
2021/04/26 03:24:17;;;;;;;10.15;9.25;;;2.70;66.30;;;;;;5018082;28;20162;-88
2021/04/26 03:27:03;;;;;;;11.77;10.07;;;3.00;66.30;;;;;;4998030;28;20212;-88
2021/04/26 03:29:49;;;;;;;11.10;9.88;;;4.10;67.30;;;;;;5001256;28;20216;-88
2021/04/26 03:32:18;;;;;;;11.65;9.57;;;2.90;65.30;;;;;;5019672;28;20168;-87
2021/04/26 03:38:06;;;;;;;17.40;10.45;;;2.80;66.50;;;;;;5003250;28;20183;-88
2021/04/26 03:40:52;;;;;;;11.13;9.63;;;4.70;72.30;;;;;;5003315;28;20342;-87
2021/04/26 03:43:30;;;;;;;11.93;10.70;;;4.90;71.60;;;;;;4995368;28;20161;-88
2021/04/26 03:46:15;;;;;;;12.85;10.85;;;5.20;70.30;;;;;;5000259;28;20189;-88
2021/04/26 03:48:41;;;;;;;13.82;11.23;;;2.70;67.10;;;;;;5002885;28;20240;-87
2021/04/26 03:51:31;;;;;;;19.67;11.10;;;4.00;71.90;;;;;;5018820;28;20157;-90
2021/04/26 03:54:07;;;;;;;15.35;10.90;;;4.50;70.30;;;;;;5001829;28;20233;-90
2021/04/26 03:57:03;;;;;;;12.27;10.90;;;3.50;72.60;;;;;;5020686;28;20246;-89
2021/04/26 03:59:29;;;;;;;10.98;9.32;;;2.70;81.00;;;;;;4989188;28;20196;-90
2021/04/26 04:01:59;;;;;;;14.70;9.73;;;4.50;76.80;;;;;;5001738;28;20181;-88
2021/04/26 04:04:40;;;;;;;13.07;10.75;;;1.90;67.40;;;;;;5002233;28;20493;-89
2021/04/26 04:10:58;;;;;;;13.57;12.20;;;4.50;70.90;;;;;;5019059;28;20172;-88
2021/04/26 04:14:00;;;;;;;15.70;11.00;;;2.60;81.80;;;;;;5018756;28;20233;-89
2021/04/26 04:17:03;;;;;;;13.73;11.35;;;5.30;74.30;;;;;;5008692;28;20173;-87
2021/04/26 04:19:45;;;;;;;19.30;12.35;;;2.80;69.00;;;;;;5000901;28;20228;-90
2021/04/26 04:22:39;;;;;;;15.65;11.15;;;5.20;77.30;;;;;;4981042;28;20305;-88
2021/04/26 04:25:27;;;;;;;16.42;11.27;;;2.80;69.00;;;;;;5017689;28;20173;-86
2021/04/26 04:27:55;;;;;;;20.90;11.73;;;3.50;70.00;;;;;;4968603;28;20165;-87
2021/04/26 04:30:33;;;;;;;16.02;11.00;;;2.70;78.30;;;;;;5017909;28;20222;-88
2021/04/26 04:33:27;;;;;;;21.77;12.63;;;2.60;68.40;;;;;;5018467;28;20197;-88
2021/04/26 04:36:39;;;;;;;16.50;11.80;;;2.70;68.30;;;;;;5017204;28;20192;-89
2021/04/26 04:39:30;;;;;;;19.77;10.57;;;3.70;69.90;;;;;;5015617;28;20207;-88
2021/04/26 04:42:16;;;;;;;21.50;12.88;;;3.50;69.90;;;;;;5017876;28;20165;-88
2021/04/26 04:45:03;;;;;;;14.15;12.15;;;2.50;71.90;;;;;;5016611;28;20162;-89
2021/04/26 04:47:30;;;;;;;16.75;11.50;;;2.40;70.70;;;;;;5000223;28;20582;-87
2021/04/26 04:50:01;;;;;;;11.43;10.40;;;3.50;69.60;;;;;;5000364;28;20205;-89
2021/04/26 04:53:01;;;;;;;16.15;12.80;;;5.80;75.30;;;;;;5010792;28;20188;-87
2021/04/26 04:55:50;;;;;;;13.25;11.50;;;3.10;69.20;;;;;;4997596;28;20212;-88
2021/04/26 04:58:24;;;;;;;20.75;10.43;;;1.80;70.70;;;;;;5015566;28;20214;-90
2021/04/26 05:00:54;;;;;;;17.35;11.20;;;4.50;76.60;;;;;;4997786;28;20196;-87
2021/04/26 05:03:32;;;;;;;19.42;11.50;;;4.40;72.80;;;;;;4998680;28;20197;-90
2021/04/26 05:06:25;;;;;;;14.70;11.30;;;3.00;70.10;;;;;;4997445;28;20186;-89
2021/04/26 05:08:53;;;;;;;16.55;11.23;;;4.70;69.80;;;;;;5147037;23;20257;-89
2021/04/26 05:11:19;;;;;;;13.10;10.32;;;2.90;73.20;;;;;;4998068;28;20212;-87
2021/04/26 05:13:50;;;;;;;13.00;10.60;;;4.30;72.30;;;;;;4980984;28;20193;-89
2021/04/26 05:16:16;;;;;;;10.98;8.98;;;3.30;74.20;;;;;;4980667;28;20396;-87
2021/04/26 05:18:41;;;;;;;11.47;9.90;;;3.50;71.80;;;;;;4995657;28;20215;-84
2021/04/26 05:21:07;;;;;;;10.73;9.70;;;3.40;64.20;;;;;;4986824;28;20174;-87
2021/04/26 05:23:33;;;;;;;9.67;8.77;;;3.90;60.70;;;;;;4979281;28;20193;-85
2021/04/26 05:25:59;;;;;;;9.80;8.50;;;4.50;59.40;;;;;;4978324;28;20174;-88
2021/04/26 05:28:34;;;;;;;9.93;8.97;;;4.90;58.20;;;;;;4940555;28;20202;-89
2021/04/26 05:30:59;;;;;;;10.82;9.82;;;5.40;57.50;;;;;;4975033;28;20432;-89
2021/04/26 05:33:31;;;;;;;10.03;8.80;;;5.30;57.20;;;;;;4992967;28;20172;-90
2021/04/26 05:36:10;;;;;;;12.57;10.10;;;5.60;56.20;;;;;;4991898;28;20189;-90
2021/04/26 05:38:37;;;;;;;10.00;9.00;;;6.00;56.20;;;;;;4972559;28;20536;-88
2021/04/26 05:41:03;;;;;;;9.90;8.50;;;6.30;55.20;;;;;;4972314;28;20166;-86
2021/04/26 05:43:29;;;;;;;10.00;8.90;;;;;;;;;;4952697;28;20467;-91
2021/04/26 05:45:54;;;;;;;9.27;8.40;;;6.80;53.90;;;;;;4981547;28;20185;-89
2021/04/26 05:48:20;;;;;;;9.77;8.77;;;7.60;54.90;;;;;;4961353;28;20425;-89
2021/04/26 05:50:46;;;;;;;10.07;8.80;;;10.00;54.00;;;;;;4962958;28;20173;-87
2021/04/26 05:53:11;;;;;;;9.40;8.50;;;7.60;52.10;;;;;;4963151;28;20197;-89
2021/04/26 05:55:38;;;;;;;9.63;8.63;;;8.00;52.00;;;;;;4971287;28;20186;-87
2021/04/26 05:58:04;;;;;;;17.13;9.73;;;7.90;50.80;;;;;;4974435;28;20174;-89
2021/04/26 06:00:33;;;;;;;8.87;7.97;;;8.30;49.90;;;;;;4994515;28;20501;-90
2021/04/26 06:02:58;;;;;;;9.20;8.57;;;9.40;49.70;;;;;;4986459;28;20181;-91
2021/04/26 06:05:24;;;;;;;9.80;8.80;;;11.00;49.10;;;;;;4961491;28;20456;-88
2021/04/26 06:07:49;;;;;;;11.67;8.57;;;9.70;48.00;;;;;;4972925;28;20228;-88
2021/04/26 06:10:15;;;;;;;12.80;9.73;;;12.10;47.90;;;;;;4975175;28;20555;-89
2021/04/26 06:12:41;;;;;;;15.53;9.83;;;10.30;46.40;;;;;;4956282;28;20322;-88
2021/04/26 06:15:07;;;;;;;11.40;10.03;;;11.90;47.90;;;;;;4958211;28;20174;-88
2021/04/26 06:17:33;;;;;;;12.30;9.83;;;10.40;45.90;;;;;;4975635;28;20249;-89
2021/04/26 06:19:59;;;;;;;9.97;8.67;;;10.70;45.50;;;;;;4957892;28;20473;-89
2021/04/26 06:22:24;;;;;;;8.67;8.03;;;11.00;44.70;;;;;;4976007;28;20422;-89
2021/04/26 06:24:50;;;;;;;14.80;8.90;;;11.30;44.50;;;;;;4959479;28;20653;-88
2021/04/26 06:27:15;;;;;;;9.93;9.00;;;11.70;43.80;;;;;;4975849;28;20191;-88
2021/04/26 06:29:41;;;;;;;9.17;8.43;;;11.90;43.40;;;;;;4976280;28;20272;-89
2021/04/26 06:32:07;;;;;;;10.27;8.30;;;12.00;42.60;;;;;;4953475;28;20276;-87
2021/04/26 06:34:32;;;;;;;9.70;8.83;;;12.20;42.20;;;;;;4976090;28;20181;-88
2021/04/26 06:36:58;;;;;;;10.37;8.97;;;12.60;42.40;;;;;;4975349;28;20174;-85
2021/04/26 06:39:24;;;;;;;12.13;9.97;;;12.70;41.10;;;;;;4612935;28;9999660;-88
2021/04/26 06:41:49;;;;;;;11.17;10.00;;;13.00;40.50;;;;;;4973373;28;20174;-88
2021/04/26 06:44:15;;;;;;;12.40;9.97;;;14.20;40.60;;;;;;4968020;28;20277;-87
2021/04/26 06:46:41;;;;;;;15.97;10.97;;;13.30;39.60;;;;;;4967889;28;20513;-88
2021/04/26 06:49:06;;;;;;;10.60;9.83;;;14.00;40.30;;;;;;4945169;28;20177;-86
2021/04/26 06:51:32;;;;;;;13.07;8.63;;;14.30;39.60;;;;;;4954922;28;20200;-88
2021/04/26 06:53:58;;;;;;;10.80;9.90;;;14.50;39.10;;;;;;4955440;28;20637;-88
2021/04/26 06:56:24;;;;;;;13.43;10.00;;;15.00;37.30;;;;;;4972886;28;20182;-89
2021/04/26 06:58:50;;;;;;;13.30;10.20;;;15.40;35.30;;;;;;4971863;28;20468;-89
2021/04/26 07:01:15;;;;;;;10.50;9.50;;;15.30;33.80;;;;;;4956758;28;20325;-87
2021/04/26 07:03:41;;;;;;;12.13;9.00;;;15.60;33.20;;;;;;4974348;28;20442;-87
2021/04/26 07:06:07;;;;;;;11.77;10.00;;;15.80;32.10;;;;;;4975229;28;20178;-88
2021/04/26 07:08:32;;;;;;;10.80;10.00;;;16.00;32.70;;;;;;4957311;28;20222;-87
2021/04/26 07:10:58;;;;;;;9.73;8.77;;;16.30;31.50;;;;;;4956808;28;20206;-89
2021/04/26 07:13:23;;;;;;;9.57;8.57;;;16.60;31.40;;;;;;4957198;28;20173;-89
2021/04/26 07:15:49;;;;;;;13.93;10.40;;;17.00;30.70;;;;;;4974000;28;20181;-86
2021/04/26 07:18:14;;;;;;;9.93;9.13;;;17.70;30.10;;;;;;4974500;28;20213;-87
2021/04/26 07:20:40;;;;;;;9.87;8.97;;;18.10;29.90;;;;;;4974394;28;20183;-86
2021/04/26 07:23:06;;;;;;;11.23;8.47;;;18.40;29.70;;;;;;4957330;28;20242;-87
2021/04/26 07:25:31;;;;;;;9.00;8.10;;;18.70;29.50;;;;;;4974924;28;20622;-88
2021/04/26 07:27:57;;;;;;;12.30;9.90;;;18.40;28.70;;;;;;4961326;28;20182;-88
2021/04/26 07:30:22;;;;;;;9.30;8.47;;;18.70;28.60;;;;;;4957822;28;20228;-88
2021/04/26 07:32:49;;;;;;;9.77;8.97;;;18.60;28.30;;;;;;4958088;28;20170;-87
2021/04/26 07:35:15;;;;;;;9.57;8.63;;;19.30;28.60;;;;;;4958112;28;20171;-89
2021/04/26 07:37:43;;;;;;;9.37;8.57;;;18.00;27.70;;;;;;4974694;28;20406;-88
2021/04/26 07:40:13;;;;;;;11.07;9.03;;;19.40;28.20;;;;;;4974678;28;20480;-87
2021/04/26 07:42:38;;;;;;;7.60;7.20;;;18.90;28.20;;;;;;4973763;28;20448;-86
2021/04/26 07:45:11;;;;;;;7.80;7.13;;;18.90;27.90;;;;;;4973810;28;20418;-87
2021/04/26 07:47:37;;;;;;;10.40;7.53;;;19.20;27.20;;;;;;4974035;28;20181;-86
2021/04/26 07:50:05;;;;;;;9.13;8.33;;;19.50;27.10;;;;;;4973907;28;20778;-88
2021/04/26 07:52:31;;;;;;;6.40;5.83;;;19.90;27.10;;;;;;4612521;28;10000635;-87
2021/04/26 07:54:59;;;;;;;7.30;6.57;;;20.40;26.20;;;;;;4973389;28;20460;-87
2021/04/26 07:57:26;;;;;;;5.90;5.40;;;20.80;25.70;;;;;;4957829;28;20414;-88
2021/04/26 07:59:52;;;;;;;4.67;4.43;;;20.60;24.60;;;;;;4975475;28;20465;-88
2021/04/26 08:02:17;;;;;;;4.87;4.67;;;20.20;24.10;;;;;;4974361;28;20480;-89
2021/04/26 08:04:43;;;;;;;5.37;4.87;;;20.70;24.50;;;;;;4979672;28;20897;-88
2021/04/26 08:07:08;;;;;;;4.77;4.47;;;21.00;24.30;;;;;;4977514;28;20539;-87
2021/04/26 08:09:34;;;;;;;4.20;3.90;;;21.20;24.10;;;;;;4974908;28;20233;-86
2021/04/26 08:12:00;;;;;;;3.30;3.20;;;22.30;24.40;;;;;;4957430;28;20184;-87
2021/04/26 08:14:25;;;;;;;4.27;4.07;;;20.60;23.10;;;;;;4954042;29;20559;-89
2021/04/26 08:16:51;;;;;;;4.00;3.80;;;21.10;23.20;;;;;;4961408;28;20197;-90
2021/04/26 08:19:16;;;;;;;3.63;3.53;;;20.60;22.50;;;;;;4961555;28;20197;-89
2021/04/26 08:21:43;;;;;;;3.23;3.13;;;21.20;23.60;;;;;;4960417;28;20178;-91
2021/04/26 08:24:08;;;;;;;3.87;3.27;;;23.00;23.20;;;;;;4960593;28;20209;-91
2021/04/26 08:26:34;;;;;;;4.27;3.87;;;22.30;22.80;;;;;;4978784;28;20905;-90
2021/04/26 08:28:59;;;;;;;3.87;3.60;;;23.20;22.50;;;;;;4961495;28;20178;-90
2021/04/26 08:31:25;;;;;;;3.60;3.50;;;22.80;22.20;;;;;;4961704;28;20178;-89
2021/04/26 08:33:51;;;;;;;3.67;3.47;;;22.70;22.40;;;;;;4979765;28;20166;-90
2021/04/26 08:36:16;;;;;;;3.10;3.00;;;22.10;21.70;;;;;;4965691;28;20198;-87
2021/04/26 08:38:42;;;;;;;3.17;3.17;;;22.10;21.60;;;;;;4966517;28;20236;-89
2021/04/26 08:41:15;;;;;;;3.30;3.10;;;22.40;21.70;;;;;;4992960;28;20171;-83
2021/04/26 08:43:42;;;;;;;3.20;3.10;;;22.60;21.70;;;;;;4982448;28;20184;-85
2021/04/26 08:46:08;;;;;;;3.53;3.43;;;22.40;21.40;;;;;;4966323;28;20422;-84
2021/04/26 08:48:34;;;;;;;3.37;3.27;;;21.40;21.60;;;;;;4974002;28;20437;-89
2021/04/26 08:51:01;;;;;;;4.33;3.80;;;20.70;21.90;;;;;;4958916;28;20512;-90
2021/04/26 08:53:40;;;;;;;3.33;3.33;;;20.50;22.00;;;;;;4967082;28;20415;-92
2021/04/26 08:56:10;;;;;;;4.70;4.33;;;20.90;22.20;;;;;;4950151;29;20481;-90
2021/04/26 08:58:36;;;;;;;3.50;3.40;;;21.50;22.60;;;;;;4943893;29;20458;-88
2021/04/26 09:01:05;;;;;;;4.43;4.10;;;21.50;22.20;;;;;;4964586;29;20418;-88
2021/04/26 09:03:36;;;;;;;4.27;4.07;;;21.90;22.70;;;;;;4620054;28;10000100;-90
2021/04/26 09:06:03;;;;;;;4.37;3.27;;;22.80;22.10;;;;;;4961945;28;20615;-88
2021/04/26 09:08:29;;;;;;;3.80;3.50;;;22.30;21.70;;;;;;4957846;28;20575;-90
2021/04/26 09:11:08;;;;;;;3.40;3.13;;;22.60;21.60;;;;;;4965952;28;20456;-90
2021/04/26 09:13:49;;;;;;;4.00;3.90;;;21.80;21.90;;;;;;4958700;28;20178;-88
2021/04/26 09:16:24;;;;;;;4.50;3.87;;;22.00;21.80;;;;;;4976594;28;20483;-91
2021/04/26 09:19:08;;;;;;;3.10;2.90;;;21.90;22.30;;;;;;4957209;28;20974;-91
2021/04/26 09:21:44;;;;;;;4.40;4.30;;;22.90;21.80;;;;;;4958195;28;20417;-88
2021/04/26 09:24:10;;;;;;;3.80;3.70;;;23.60;21.80;;;;;;4978423;28;20397;-89
2021/04/26 09:26:36;;;;;;;3.30;3.23;;;22.90;21.70;;;;;;4990924;28;20456;-88
2021/04/26 09:29:40;;;;;;;3.67;3.47;;;23.00;21.60;;;;;;4964989;28;20181;-88
2021/04/26 09:32:15;;;;;;;3.30;3.17;;;23.30;21.80;;;;;;4952964;29;20502;-90
2021/04/26 09:35:10;;;;;;;3.20;3.10;;;23.60;21.70;;;;;;4966237;28;20409;-89
2021/04/26 09:37:38;;;;;;;3.30;3.10;;;24.40;21.40;;;;;;5046186;23;20497;-91
2021/04/26 09:40:07;;;;;;;3.13;3.03;;;25.40;22.90;;;;;;4989667;28;20465;-91
2021/04/26 09:42:55;;;;;;;3.50;3.40;;;23.70;21.50;;;;;;4986322;28;20477;-91
2021/04/26 09:45:30;;;;;;;3.63;3.43;;;23.30;21.60;;;;;;4990431;28;20393;-89
2021/04/26 09:48:10;;;;;;;3.43;3.37;;;25.40;22.70;;;;;;4991789;28;20414;-89
2021/04/26 09:50:59;;;;;;;3.27;3.20;;;23.80;22.70;;;;;;4991149;28;20433;-90
2021/04/26 09:53:56;;;;;;;3.37;3.27;;;24.30;22.60;;;;;;4986056;28;20397;-91
2021/04/26 09:56:26;;;;;;;4.00;3.70;;;22.90;21.50;;;;;;4976171;28;20433;-89
2021/04/26 09:58:56;;;;;;;3.63;3.47;;;24.30;22.20;;;;;;4962652;28;20804;-91
2021/04/26 10:01:22;;;;;;;4.00;3.60;;;23.90;21.70;;;;;;4979427;28;20411;-91
2021/04/26 10:03:49;;;;;;;4.00;3.80;;;24.40;21.80;;;;;;4964004;28;20433;-90
2021/04/26 10:06:17;;;;;;;3.10;3.00;;;24.60;21.80;;;;;;4947226;28;20426;-91
2021/04/26 10:08:47;;;;;;;3.87;3.27;;;23.30;21.30;;;;;;4979135;28;20418;-91
2021/04/26 10:11:14;;;;;;;5.00;4.70;;;24.60;22.10;;;;;;4960286;28;20436;-89
2021/04/26 10:13:40;;;;;;;3.77;3.47;;;24.40;21.60;;;;;;4960663;28;20452;-90
2021/04/26 10:16:09;;;;;;;3.23;3.00;;;24.30;21.10;;;;;;4961694;28;20432;-90
2021/04/26 10:18:40;;;;;;;5.30;3.40;;;24.40;21.30;;;;;;4977365;28;20476;-90
2021/04/26 10:21:18;;;;;;;3.13;3.13;;;24.40;20.80;;;;;;4945037;28;20461;-92
2021/04/26 10:23:46;;;;;;;3.80;3.60;;;25.00;21.20;;;;;;4958701;28;20472;-88
2021/04/26 10:26:41;;;;;;;3.90;3.60;;;25.00;21.00;;;;;;4978474;28;20426;-87
2021/04/26 10:29:12;;;;;;;3.90;3.60;;;24.70;20.80;;;;;;4974999;28;20425;-90
2021/04/26 10:31:56;;;;;;;4.07;3.97;;;24.60;20.70;;;;;;4958254;28;20424;-87
2021/04/26 10:34:22;;;;;;;3.20;3.20;;;24.70;20.80;;;;;;4975768;28;20409;-91
2021/04/26 10:37:00;;;;;;;4.57;4.17;;;25.00;20.80;;;;;;4963609;28;20517;-90
2021/04/26 10:39:27;;;;;;;3.90;3.80;;;26.00;21.00;;;;;;4983734;28;20496;-90
2021/04/26 10:41:58;;;;;;;4.00;3.67;;;26.60;20.20;;;;;;4982742;28;20406;-90
2021/04/26 10:44:39;;;;;;;4.13;3.70;;;24.70;20.10;;;;;;4964847;28;20421;-91
2021/04/26 10:47:15;;;;;;;4.40;4.13;;;24.50;20.40;;;;;;4965694;28;20417;-90
2021/04/26 10:50:06;;;;;;;4.27;3.97;;;25.20;20.50;;;;;;4983622;28;20420;-89
2021/04/26 10:52:38;;;;;;;4.97;4.57;;;24.90;20.20;;;;;;4972149;28;20464;-91
2021/04/26 10:55:25;;;;;;;4.20;4.00;;;24.30;20.20;;;;;;4972425;28;20433;-92
2021/04/26 10:58:39;;;;;;;4.60;4.40;;;25.70;20.80;;;;;;4961639;28;20417;-90
2021/04/26 11:01:06;;;;;;;4.40;4.13;;;24.80;20.40;;;;;;4960156;28;20476;-91
2021/04/26 11:03:34;;;;;;;4.10;3.60;;;25.10;20.80;;;;;;4961094;28;20927;-90
2021/04/26 11:06:10;;;;;;;4.47;3.83;;;25.00;20.70;;;;;;4979106;28;20405;-91
2021/04/26 11:13:54;;;;;;;4.30;3.87;;;27.30;20.80;;;;;;4978536;28;20425;-93
2021/04/26 11:16:37;;;;;;;4.90;4.43;;;26.50;19.60;;;;;;4959762;28;20489;-90
2021/04/26 11:19:11;;;;;;;4.60;4.50;;;26.70;20.40;;;;;;4962298;28;20516;-90
2021/04/26 11:21:43;;;;;;;5.07;4.43;;;26.70;20.60;;;;;;4961922;28;20487;-92
2021/04/26 11:24:25;;;;;;;4.43;4.10;;;28.00;21.00;;;;;;4975692;28;20421;-92
2021/04/26 11:27:10;;;;;;;3.97;3.87;;;26.50;20.00;;;;;;4955965;29;20477;-90
2021/04/26 11:29:56;;;;;;;4.27;3.97;;;26.80;20.90;;;;;;4964342;28;20466;-92
2021/04/26 11:32:23;;;;;;;3.83;3.83;;;26.50;19.70;;;;;;4978269;28;20493;-92
2021/04/26 11:34:49;;;;;;;4.97;4.77;;;26.20;19.80;;;;;;4979766;28;20421;-91
2021/04/26 11:37:17;;;;;;;4.70;4.40;;;24.00;19.40;;;;;;4979046;28;20457;-89
2021/04/26 11:39:44;;;;;;;5.33;5.00;;;25.10;20.20;;;;;;4993432;28;20504;-89
2021/04/26 11:42:18;;;;;;;8.77;5.00;;;24.80;20.30;;;;;;4978795;28;20417;-84
2021/04/26 11:44:44;;;;;;;5.37;4.97;;;25.30;20.70;;;;;;4972344;28;20433;-92
2021/04/26 11:47:15;;;;;;;4.93;4.50;;;27.30;21.80;;;;;;4982167;28;20424;-91
2021/04/26 11:49:46;;;;;;;4.57;4.47;;;26.10;20.60;;;;;;4963572;28;20218;-91
2021/04/26 11:52:17;;;;;;;9.23;4.73;;;25.90;20.90;;;;;;4963683;28;20448;-90
2021/04/26 11:54:50;;;;;;;5.00;4.60;;;25.90;20.90;;;;;;4965746;28;20428;-91
2021/04/26 11:57:22;;;;;;;4.60;4.40;;;27.60;21.00;;;;;;4967947;28;20492;-90
2021/04/26 12:00:00;;;;;;;4.87;4.53;;;26.70;20.80;;;;;;4970978;28;20524;-88
2021/04/26 12:02:38;;;;;;;5.50;5.03;;;26.40;20.20;;;;;;4970165;28;20413;-91
2021/04/26 12:05:10;;;;;;;4.67;4.33;;;25.10;20.00;;;;;;4967530;28;20425;-93
2021/04/26 12:07:36;;;;;;;5.13;4.73;;;23.90;20.50;;;;;;4983968;28;20417;-91
2021/04/26 12:10:20;;;;;;;5.30;5.00;;;24.50;20.80;;;;;;4966574;28;20880;-92
2021/04/26 12:12:46;;;;;;;5.40;5.10;;;24.60;20.60;;;;;;4968389;28;20553;-93
2021/04/26 12:15:18;;;;;;;4.60;4.50;;;25.00;20.90;;;;;;4970937;28;20417;-93
2021/04/26 12:17:47;;;;;;;4.50;4.30;;;25.80;20.30;;;;;;4967591;28;20433;-92
2021/04/26 12:20:17;;;;;;;4.97;4.47;;;26.90;20.00;;;;;;4960602;28;20429;-93
2021/04/26 12:22:45;;;;;;;5.30;5.10;;;26.00;19.90;;;;;;4947971;29;20422;-90
2021/04/26 12:25:19;;;;;;;7.00;5.10;;;25.00;20.40;;;;;;4950282;29;20439;-92
2021/04/26 12:27:45;;;;;;;5.30;5.00;;;25.60;20.60;;;;;;4945804;29;20418;-93
2021/04/26 12:30:20;;;;;;;5.07;4.87;;;25.70;20.70;;;;;;4965767;29;20481;-93
2021/04/26 12:32:46;;;;;;;6.47;5.57;;;26.50;20.60;;;;;;4948434;29;20509;-92
2021/04/26 12:35:15;;;;;;;5.13;4.93;;;25.60;20.60;;;;;;4947001;29;20422;-91
2021/04/26 12:37:47;;;;;;;4.93;4.73;;;25.70;20.60;;;;;;4963603;29;20521;-91
2021/04/26 12:40:28;;;;;;;5.33;4.93;;;26.00;20.60;;;;;;4961727;28;20642;-91
2021/04/26 12:42:57;;;;;;;6.43;4.70;;;26.00;20.10;;;;;;4960277;28;20439;-90
2021/04/26 12:45:30;;;;;;;5.33;5.07;;;26.20;21.20;;;;;;4975897;28;20421;-92
2021/04/26 12:48:17;;;;;;;5.47;5.17;;;26.10;19.90;;;;;;4962571;28;20413;-91
2021/04/26 12:50:48;;;;;;;6.13;5.73;;;25.50;19.80;;;;;;4945159;29;20457;-91
2021/04/26 12:53:29;;;;;;;6.60;5.67;;;24.90;20.10;;;;;;4965354;28;21007;-90
2021/04/26 12:56:20;;;;;;;5.73;5.43;;;25.30;20.30;;;;;;4963928;29;20503;-90
2021/04/26 12:58:49;;;;;;;6.20;5.80;;;25.90;20.20;;;;;;4961829;29;20434;-89
2021/04/26 13:01:17;;;;;;;6.97;6.47;;;26.60;20.80;;;;;;4969523;28;20459;-89
2021/04/26 13:03:49;;;;;;;6.57;6.17;;;26.00;20.20;;;;;;4981800;28;20516;-92
2021/04/26 13:06:17;;;;;;;6.67;6.07;;;26.20;21.00;;;;;;4963714;28;20414;-92
2021/04/26 13:08:49;;;;;;;7.33;6.87;;;26.50;20.30;;;;;;4963102;28;20457;-92
2021/04/26 13:11:26;;;;;;;5.57;5.37;;;26.30;20.10;;;;;;4960946;28;20429;-91
2021/04/26 13:13:56;;;;;;;5.80;5.50;;;26.90;20.70;;;;;;4961881;28;20425;-92
2021/04/26 13:16:24;;;;;;;9.10;5.60;;;25.80;21.00;;;;;;4961584;28;20417;-91
2021/04/26 13:18:54;;;;;;;5.77;5.47;;;27.30;21.20;;;;;;4959755;28;20520;-90
2021/04/26 13:21:22;;;;;;;5.70;5.40;;;25.60;20.10;;;;;;4957639;29;20938;-92
2021/04/26 13:23:48;;;;;;;5.60;5.40;;;27.30;20.90;;;;;;4979888;28;20497;-91
2021/04/26 13:26:31;;;;;;;15.93;6.00;;;24.20;21.20;;;;;;4956396;29;20524;-88
2021/04/26 13:29:08;;;;;;;6.07;5.77;;;25.60;21.00;;;;;;4961415;29;20466;-88
2021/04/26 13:31:41;;;;;;;7.20;6.63;;;25.30;21.30;;;;;;4969578;29;20406;-87
2021/04/26 13:34:25;;;;;;;6.13;5.73;;;25.40;20.30;;;;;;4965189;29;20426;-90
2021/04/26 13:36:52;;;;;;;5.93;5.63;;;26.30;21.10;;;;;;4965788;29;20493;-89
2021/04/26 13:39:18;;;;;;;6.30;5.87;;;24.60;20.60;;;;;;4950170;28;20530;-89
2021/04/26 13:41:45;;;;;;;6.57;5.67;;;23.90;20.90;;;;;;4971283;28;20436;-87